sensor_id;sensor_type;location;lat;lon;timestamp;P1;durP1;ratioP1;P2;durP2;ratioP2
68583;SDS011;55557;49.220;11.150;2023-02-01T00:00:57;5.83;;;4.30;;
68583;SDS011;55557;49.220;11.150;2023-02-01T00:03:23;5.07;;;4.17;;
68583;SDS011;55557;49.220;11.150;2023-02-01T00:05:56;9.10;;;5.50;;
68583;SDS011;55557;49.220;11.150;2023-02-01T00:08:22;9.20;;;6.00;;
68583;SDS011;55557;49.220;11.150;2023-02-01T00:10:48;6.40;;;4.60;;
68583;SDS011;55557;49.220;11.150;2023-02-01T00:13:14;6.17;;;4.73;;
68583;SDS011;55557;49.220;11.150;2023-02-01T00:15:40;10.03;;;5.50;;
68583;SDS011;55557;49.220;11.150;2023-02-01T00:18:06;6.47;;;4.67;;
68583;SDS011;55557;49.220;11.150;2023-02-01T00:20:32;12.23;;;5.03;;
68583;SDS011;55557;49.220;11.150;2023-02-01T00:22:57;9.40;;;4.53;;
68583;SDS011;55557;49.220;11.150;2023-02-01T00:25:23;6.87;;;4.73;;
68583;SDS011;55557;49.220;11.150;2023-02-01T00:27:49;9.27;;;4.80;;
68583;SDS011;55557;49.220;11.150;2023-02-01T00:30:16;6.37;;;4.77;;
68583;SDS011;55557;49.220;11.150;2023-02-01T00:32:42;7.70;;;4.83;;
68583;SDS011;55557;49.220;11.150;2023-02-01T00:35:08;6.97;;;4.50;;
68583;SDS011;55557;49.220;11.150;2023-02-01T00:37:34;5.67;;;4.23;;
68583;SDS011;55557;49.220;11.150;2023-02-01T00:40:00;7.83;;;4.37;;
68583;SDS011;55557;49.220;11.150;2023-02-01T00:42:26;7.77;;;4.97;;
68583;SDS011;55557;49.220;11.150;2023-02-01T00:44:52;7.23;;;4.90;;
68583;SDS011;55557;49.220;11.150;2023-02-01T00:47:18;7.47;;;4.37;;
68583;SDS011;55557;49.220;11.150;2023-02-01T00:49:44;8.80;;;5.33;;
68583;SDS011;55557;49.220;11.150;2023-02-01T00:52:13;10.07;;;5.30;;
68583;SDS011;55557;49.220;11.150;2023-02-01T00:54:39;7.80;;;4.93;;
68583;SDS011;55557;49.220;11.150;2023-02-01T00:57:05;8.33;;;5.33;;
68583;SDS011;55557;49.220;11.150;2023-02-01T00:59:30;6.97;;;5.10;;
68583;SDS011;55557;49.220;11.150;2023-02-01T01:01:56;8.87;;;4.97;;
68583;SDS011;55557;49.220;11.150;2023-02-01T01:04:22;8.10;;;5.10;;
68583;SDS011;55557;49.220;11.150;2023-02-01T01:06:48;7.83;;;5.23;;
68583;SDS011;55557;49.220;11.150;2023-02-01T01:09:14;10.27;;;5.23;;
68583;SDS011;55557;49.220;11.150;2023-02-01T01:11:40;8.57;;;5.80;;
68583;SDS011;55557;49.220;11.150;2023-02-01T01:14:07;7.40;;;5.13;;
68583;SDS011;55557;49.220;11.150;2023-02-01T01:16:33;8.17;;;5.33;;
68583;SDS011;55557;49.220;11.150;2023-02-01T01:18:59;7.47;;;4.97;;
68583;SDS011;55557;49.220;11.150;2023-02-01T01:21:26;7.70;;;4.53;;
68583;SDS011;55557;49.220;11.150;2023-02-01T01:23:52;8.07;;;5.27;;
68583;SDS011;55557;49.220;11.150;2023-02-01T01:26:20;12.17;;;5.40;;
68583;SDS011;55557;49.220;11.150;2023-02-01T01:28:47;8.87;;;4.50;;
68583;SDS011;55557;49.220;11.150;2023-02-01T01:31:14;8.73;;;5.23;;
68583;SDS011;55557;49.220;11.150;2023-02-01T01:33:40;11.30;;;4.73;;
68583;SDS011;55557;49.220;11.150;2023-02-01T01:36:07;8.30;;;5.20;;
68583;SDS011;55557;49.220;11.150;2023-02-01T01:38:35;7.00;;;4.90;;
68583;SDS011;55557;49.220;11.150;2023-02-01T01:41:02;8.70;;;5.07;;
68583;SDS011;55557;49.220;11.150;2023-02-01T01:43:44;5.87;;;4.40;;
68583;SDS011;55557;49.220;11.150;2023-02-01T01:46:15;7.10;;;4.67;;
68583;SDS011;55557;49.220;11.150;2023-02-01T01:48:41;7.20;;;4.40;;
68583;SDS011;55557;49.220;11.150;2023-02-01T01:51:08;9.30;;;4.57;;
68583;SDS011;55557;49.220;11.150;2023-02-01T01:53:37;8.27;;;4.57;;
68583;SDS011;55557;49.220;11.150;2023-02-01T01:56:04;6.83;;;5.00;;
68583;SDS011;55557;49.220;11.150;2023-02-01T01:58:30;5.43;;;4.23;;
68583;SDS011;55557;49.220;11.150;2023-02-01T02:00:58;9.23;;;4.27;;
68583;SDS011;55557;49.220;11.150;2023-02-01T02:03:43;7.23;;;5.17;;
68583;SDS011;55557;49.220;11.150;2023-02-01T02:08:45;6.17;;;4.70;;
68583;SDS011;55557;49.220;11.150;2023-02-01T02:11:12;8.23;;;4.40;;
68583;SDS011;55557;49.220;11.150;2023-02-01T02:13:42;6.33;;;4.37;;
68583;SDS011;55557;49.220;11.150;2023-02-01T02:27:06;6.17;;;4.40;;
68583;SDS011;55557;49.220;11.150;2023-02-01T02:37:41;5.03;;;3.93;;
68583;SDS011;55557;49.220;11.150;2023-02-01T02:51:12;6.50;;;4.43;;
68583;SDS011;55557;49.220;11.150;2023-02-01T02:53:56;7.87;;;4.43;;
68583;SDS011;55557;49.220;11.150;2023-02-01T02:56:42;5.63;;;3.70;;
68583;SDS011;55557;49.220;11.150;2023-02-01T02:59:27;5.37;;;4.23;;
68583;SDS011;55557;49.220;11.150;2023-02-01T03:02:13;8.27;;;4.37;;
68583;SDS011;55557;49.220;11.150;2023-02-01T03:04:58;6.87;;;3.83;;
68583;SDS011;55557;49.220;11.150;2023-02-01T03:10:32;6.00;;;4.53;;
68583;SDS011;55557;49.220;11.150;2023-02-01T03:12:59;5.17;;;4.07;;
68583;SDS011;55557;49.220;11.150;2023-02-01T03:15:31;6.90;;;4.13;;
68583;SDS011;55557;49.220;11.150;2023-02-01T03:17:58;5.67;;;4.07;;
68583;SDS011;55557;49.220;11.150;2023-02-01T03:20:26;5.97;;;4.53;;
68583;SDS011;55557;49.220;11.150;2023-02-01T03:22:53;8.77;;;3.90;;
68583;SDS011;55557;49.220;11.150;2023-02-01T03:25:23;5.17;;;3.77;;
68583;SDS011;55557;49.220;11.150;2023-02-01T03:27:52;6.40;;;4.13;;
68583;SDS011;55557;49.220;11.150;2023-02-01T03:30:20;10.80;;;3.83;;
68583;SDS011;55557;49.220;11.150;2023-02-01T03:32:48;5.57;;;4.07;;
68583;SDS011;55557;49.220;11.150;2023-02-01T03:38:00;7.60;;;4.10;;
68583;SDS011;55557;49.220;11.150;2023-02-01T03:40:27;4.77;;;3.63;;
68583;SDS011;55557;49.220;11.150;2023-02-01T03:42:56;6.00;;;3.80;;
68583;SDS011;55557;49.220;11.150;2023-02-01T03:45:28;5.30;;;4.10;;
68583;SDS011;55557;49.220;11.150;2023-02-01T03:47:57;6.27;;;4.43;;
68583;SDS011;55557;49.220;11.150;2023-02-01T03:50:25;8.23;;;4.17;;
68583;SDS011;55557;49.220;11.150;2023-02-01T03:53:05;8.20;;;4.70;;
68583;SDS011;55557;49.220;11.150;2023-02-01T03:55:32;8.00;;;4.47;;
68583;SDS011;55557;49.220;11.150;2023-02-01T03:58:01;4.33;;;3.43;;
68583;SDS011;55557;49.220;11.150;2023-02-01T04:00:29;7.37;;;4.13;;
68583;SDS011;55557;49.220;11.150;2023-02-01T04:02:55;9.57;;;4.10;;
68583;SDS011;55557;49.220;11.150;2023-02-01T04:05:21;8.17;;;4.77;;
68583;SDS011;55557;49.220;11.150;2023-02-01T04:07:47;4.73;;;3.83;;
68583;SDS011;55557;49.220;11.150;2023-02-01T04:10:13;8.63;;;5.07;;
68583;SDS011;55557;49.220;11.150;2023-02-01T04:12:39;5.40;;;4.10;;
68583;SDS011;55557;49.220;11.150;2023-02-01T04:15:06;8.10;;;4.30;;
68583;SDS011;55557;49.220;11.150;2023-02-01T04:17:32;6.60;;;4.33;;
68583;SDS011;55557;49.220;11.150;2023-02-01T04:19:58;8.47;;;4.37;;
68583;SDS011;55557;49.220;11.150;2023-02-01T04:22:24;16.33;;;7.57;;
68583;SDS011;55557;49.220;11.150;2023-02-01T04:24:53;6.57;;;4.23;;
68583;SDS011;55557;49.220;11.150;2023-02-01T04:27:19;7.23;;;4.37;;
68583;SDS011;55557;49.220;11.150;2023-02-01T04:29:45;7.57;;;4.83;;
68583;SDS011;55557;49.220;11.150;2023-02-01T04:32:11;7.07;;;4.43;;
68583;SDS011;55557;49.220;11.150;2023-02-01T04:34:37;5.20;;;3.97;;
68583;SDS011;55557;49.220;11.150;2023-02-01T04:37:02;7.90;;;5.43;;
68583;SDS011;55557;49.220;11.150;2023-02-01T04:39:28;9.33;;;4.63;;
68583;SDS011;55557;49.220;11.150;2023-02-01T04:41:55;6.40;;;4.50;;
68583;SDS011;55557;49.220;11.150;2023-02-01T04:44:21;7.73;;;4.30;;
68583;SDS011;55557;49.220;11.150;2023-02-01T04:46:47;5.77;;;4.30;;
68583;SDS011;55557;49.220;11.150;2023-02-01T04:49:14;6.03;;;4.17;;
68583;SDS011;55557;49.220;11.150;2023-02-01T04:51:40;5.43;;;3.93;;
68583;SDS011;55557;49.220;11.150;2023-02-01T04:54:07;5.90;;;3.60;;
68583;SDS011;55557;49.220;11.150;2023-02-01T04:56:33;5.00;;;3.53;;
68583;SDS011;55557;49.220;11.150;2023-02-01T04:59:02;5.23;;;4.00;;
68583;SDS011;55557;49.220;11.150;2023-02-01T05:01:28;6.13;;;4.40;;
68583;SDS011;55557;49.220;11.150;2023-02-01T05:03:54;6.93;;;4.30;;
68583;SDS011;55557;49.220;11.150;2023-02-01T05:06:20;8.97;;;4.40;;
68583;SDS011;55557;49.220;11.150;2023-02-01T05:08:46;7.30;;;4.27;;
68583;SDS011;55557;49.220;11.150;2023-02-01T05:11:12;6.07;;;4.00;;
68583;SDS011;55557;49.220;11.150;2023-02-01T05:13:58;7.87;;;4.07;;
68583;SDS011;55557;49.220;11.150;2023-02-01T05:16:24;6.57;;;3.23;;
68583;SDS011;55557;49.220;11.150;2023-02-01T05:18:50;10.23;;;4.33;;
68583;SDS011;55557;49.220;11.150;2023-02-01T05:21:16;6.13;;;4.00;;
68583;SDS011;55557;49.220;11.150;2023-02-01T05:23:42;4.77;;;3.80;;
68583;SDS011;55557;49.220;11.150;2023-02-01T05:26:27;4.57;;;3.33;;
68583;SDS011;55557;49.220;11.150;2023-02-01T05:28:53;6.43;;;3.73;;
68583;SDS011;55557;49.220;11.150;2023-02-01T05:31:18;5.20;;;3.97;;
68583;SDS011;55557;49.220;11.150;2023-02-01T05:33:44;5.27;;;3.70;;
68583;SDS011;55557;49.220;11.150;2023-02-01T05:36:10;4.57;;;3.63;;
68583;SDS011;55557;49.220;11.150;2023-02-01T05:38:36;5.73;;;3.70;;
68583;SDS011;55557;49.220;11.150;2023-02-01T05:41:02;4.10;;;3.47;;
68583;SDS011;55557;49.220;11.150;2023-02-01T05:43:28;6.87;;;4.47;;
68583;SDS011;55557;49.220;11.150;2023-02-01T05:45:54;6.47;;;4.10;;
68583;SDS011;55557;49.220;11.150;2023-02-01T05:48:20;4.07;;;3.43;;
68583;SDS011;55557;49.220;11.150;2023-02-01T05:50:46;6.17;;;3.90;;
68583;SDS011;55557;49.220;11.150;2023-02-01T05:53:12;4.97;;;3.67;;
68583;SDS011;55557;49.220;11.150;2023-02-01T05:55:41;6.53;;;3.77;;
68583;SDS011;55557;49.220;11.150;2023-02-01T05:58:07;4.20;;;3.03;;
68583;SDS011;55557;49.220;11.150;2023-02-01T06:00:33;5.93;;;3.77;;
68583;SDS011;55557;49.220;11.150;2023-02-01T06:03:02;3.53;;;3.20;;
68583;SDS011;55557;49.220;11.150;2023-02-01T06:05:28;8.80;;;4.17;;
68583;SDS011;55557;49.220;11.150;2023-02-01T06:07:54;6.40;;;3.83;;
68583;SDS011;55557;49.220;11.150;2023-02-01T06:10:20;6.30;;;3.37;;
68583;SDS011;55557;49.220;11.150;2023-02-01T06:12:46;4.87;;;3.73;;
68583;SDS011;55557;49.220;11.150;2023-02-01T06:15:12;6.03;;;3.57;;
68583;SDS011;55557;49.220;11.150;2023-02-01T06:17:40;4.93;;;3.50;;
68583;SDS011;55557;49.220;11.150;2023-02-01T06:20:08;6.40;;;3.37;;
68583;SDS011;55557;49.220;11.150;2023-02-01T06:22:34;4.33;;;3.50;;
68583;SDS011;55557;49.220;11.150;2023-02-01T06:25:01;5.80;;;3.60;;
68583;SDS011;55557;49.220;11.150;2023-02-01T06:27:27;6.00;;;3.73;;
68583;SDS011;55557;49.220;11.150;2023-02-01T06:29:53;6.17;;;3.70;;
68583;SDS011;55557;49.220;11.150;2023-02-01T06:32:20;5.17;;;4.20;;
68583;SDS011;55557;49.220;11.150;2023-02-01T06:34:46;5.77;;;3.20;;
68583;SDS011;55557;49.220;11.150;2023-02-01T06:37:12;5.20;;;3.77;;
68583;SDS011;55557;49.220;11.150;2023-02-01T06:39:39;4.53;;;3.43;;
68583;SDS011;55557;49.220;11.150;2023-02-01T06:42:05;9.23;;;4.63;;
68583;SDS011;55557;49.220;11.150;2023-02-01T06:44:31;4.47;;;3.57;;
68583;SDS011;55557;49.220;11.150;2023-02-01T06:46:56;6.10;;;4.00;;
68583;SDS011;55557;49.220;11.150;2023-02-01T06:49:22;4.37;;;3.87;;
68583;SDS011;55557;49.220;11.150;2023-02-01T06:51:48;6.67;;;3.60;;
68583;SDS011;55557;49.220;11.150;2023-02-01T06:54:14;4.27;;;3.30;;
68583;SDS011;55557;49.220;11.150;2023-02-01T06:56:40;5.40;;;3.47;;
68583;SDS011;55557;49.220;11.150;2023-02-01T06:59:07;6.57;;;4.30;;
68583;SDS011;55557;49.220;11.150;2023-02-01T07:01:33;12.00;;;4.07;;
68583;SDS011;55557;49.220;11.150;2023-02-01T07:04:00;5.60;;;3.87;;
68583;SDS011;55557;49.220;11.150;2023-02-01T07:06:26;5.73;;;3.63;;
68583;SDS011;55557;49.220;11.150;2023-02-01T07:08:52;6.03;;;4.73;;
68583;SDS011;55557;49.220;11.150;2023-02-01T07:11:21;5.70;;;5.10;;
68583;SDS011;55557;49.220;11.150;2023-02-01T07:13:47;7.47;;;4.90;;
68583;SDS011;55557;49.220;11.150;2023-02-01T07:16:15;7.83;;;3.93;;
68583;SDS011;55557;49.220;11.150;2023-02-01T07:18:41;4.90;;;4.30;;
68583;SDS011;55557;49.220;11.150;2023-02-01T07:21:07;5.33;;;4.33;;
68583;SDS011;55557;49.220;11.150;2023-02-01T07:23:37;9.87;;;5.00;;
68583;SDS011;55557;49.220;11.150;2023-02-01T07:26:04;6.37;;;5.53;;
68583;SDS011;55557;49.220;11.150;2023-02-01T07:28:31;5.30;;;3.63;;
68583;SDS011;55557;49.220;11.150;2023-02-01T07:31:07;9.10;;;4.50;;
68583;SDS011;55557;49.220;11.150;2023-02-01T07:33:39;6.10;;;3.67;;
68583;SDS011;55557;49.220;11.150;2023-02-01T07:36:06;5.87;;;3.70;;
68583;SDS011;55557;49.220;11.150;2023-02-01T07:38:32;5.87;;;4.23;;
68583;SDS011;55557;49.220;11.150;2023-02-01T07:41:01;5.57;;;3.73;;
68583;SDS011;55557;49.220;11.150;2023-02-01T07:43:28;5.37;;;3.57;;
68583;SDS011;55557;49.220;11.150;2023-02-01T07:45:55;7.53;;;4.10;;
68583;SDS011;55557;49.220;11.150;2023-02-01T07:48:22;8.00;;;5.00;;
68583;SDS011;55557;49.220;11.150;2023-02-01T07:50:48;5.27;;;4.70;;
68583;SDS011;55557;49.220;11.150;2023-02-01T07:53:22;5.70;;;3.20;;
68583;SDS011;55557;49.220;11.150;2023-02-01T07:55:47;6.70;;;5.97;;
68583;SDS011;55557;49.220;11.150;2023-02-01T07:58:13;4.73;;;3.00;;
68583;SDS011;55557;49.220;11.150;2023-02-01T08:00:39;5.80;;;3.87;;
68583;SDS011;55557;49.220;11.150;2023-02-01T08:03:24;4.17;;;2.87;;
68583;SDS011;55557;49.220;11.150;2023-02-01T08:05:53;6.30;;;3.10;;
68583;SDS011;55557;49.220;11.150;2023-02-01T08:08:20;6.70;;;4.10;;
68583;SDS011;55557;49.220;11.150;2023-02-01T08:10:46;3.97;;;3.07;;
68583;SDS011;55557;49.220;11.150;2023-02-01T08:13:12;4.40;;;2.50;;
68583;SDS011;55557;49.220;11.150;2023-02-01T08:15:38;4.97;;;3.20;;
68583;SDS011;55557;49.220;11.150;2023-02-01T08:18:04;4.03;;;3.07;;
68583;SDS011;55557;49.220;11.150;2023-02-01T08:20:30;6.27;;;4.80;;
68583;SDS011;55557;49.220;11.150;2023-02-01T08:22:56;3.03;;;2.57;;
68583;SDS011;55557;49.220;11.150;2023-02-01T08:25:22;5.67;;;2.63;;
68583;SDS011;55557;49.220;11.150;2023-02-01T08:27:51;5.27;;;3.53;;
68583;SDS011;55557;49.220;11.150;2023-02-01T08:30:18;4.43;;;3.03;;
68583;SDS011;55557;49.220;11.150;2023-02-01T08:32:44;4.20;;;2.83;;
68583;SDS011;55557;49.220;11.150;2023-02-01T08:35:10;4.83;;;2.93;;
68583;SDS011;55557;49.220;11.150;2023-02-01T08:37:36;5.70;;;3.50;;
68583;SDS011;55557;49.220;11.150;2023-02-01T08:40:04;5.13;;;3.93;;
68583;SDS011;55557;49.220;11.150;2023-02-01T08:42:30;5.67;;;3.67;;
68583;SDS011;55557;49.220;11.150;2023-02-01T08:45:15;5.03;;;3.40;;
68583;SDS011;55557;49.220;11.150;2023-02-01T08:47:41;7.27;;;3.50;;
68583;SDS011;55557;49.220;11.150;2023-02-01T08:50:07;7.23;;;3.93;;
68583;SDS011;55557;49.220;11.150;2023-02-01T08:52:34;9.90;;;5.17;;
68583;SDS011;55557;49.220;11.150;2023-02-01T08:54:59;10.10;;;7.97;;
68583;SDS011;55557;49.220;11.150;2023-02-01T08:57:26;6.23;;;3.90;;
68583;SDS011;55557;49.220;11.150;2023-02-01T08:59:51;7.23;;;3.30;;
68583;SDS011;55557;49.220;11.150;2023-02-01T09:02:18;5.10;;;3.70;;
68583;SDS011;55557;49.220;11.150;2023-02-01T09:04:44;5.33;;;4.10;;
68583;SDS011;55557;49.220;11.150;2023-02-01T09:07:10;4.83;;;2.97;;
68583;SDS011;55557;49.220;11.150;2023-02-01T09:09:37;9.10;;;3.73;;
68583;SDS011;55557;49.220;11.150;2023-02-01T09:12:04;5.13;;;3.17;;
68583;SDS011;55557;49.220;11.150;2023-02-01T09:14:30;5.43;;;3.23;;
68583;SDS011;55557;49.220;11.150;2023-02-01T09:16:56;5.73;;;4.10;;
68583;SDS011;55557;49.220;11.150;2023-02-01T09:19:22;12.30;;;4.00;;
68583;SDS011;55557;49.220;11.150;2023-02-01T09:21:48;7.07;;;3.83;;
68583;SDS011;55557;49.220;11.150;2023-02-01T09:24:14;8.63;;;4.57;;
68583;SDS011;55557;49.220;11.150;2023-02-01T09:26:40;6.00;;;3.97;;
68583;SDS011;55557;49.220;11.150;2023-02-01T09:29:06;13.00;;;5.83;;
68583;SDS011;55557;49.220;11.150;2023-02-01T09:31:35;7.57;;;5.40;;
68583;SDS011;55557;49.220;11.150;2023-02-01T09:34:01;10.43;;;4.73;;
68583;SDS011;55557;49.220;11.150;2023-02-01T09:36:27;6.40;;;3.90;;
68583;SDS011;55557;49.220;11.150;2023-02-01T09:38:53;8.20;;;3.87;;
68583;SDS011;55557;49.220;11.150;2023-02-01T09:43:59;7.83;;;4.13;;
68583;SDS011;55557;49.220;11.150;2023-02-01T09:46:28;6.80;;;3.30;;
68583;SDS011;55557;49.220;11.150;2023-02-01T09:48:55;6.07;;;3.20;;
68583;SDS011;55557;49.220;11.150;2023-02-01T09:51:24;11.37;;;3.77;;
68583;SDS011;55557;49.220;11.150;2023-02-01T09:54:39;7.73;;;3.57;;
68583;SDS011;55557;49.220;11.150;2023-02-01T09:59:29;9.40;;;3.77;;
68583;SDS011;55557;49.220;11.150;2023-02-01T10:01:58;9.50;;;3.90;;
68583;SDS011;55557;49.220;11.150;2023-02-01T10:04:24;6.33;;;3.27;;
68583;SDS011;55557;49.220;11.150;2023-02-01T10:06:54;10.80;;;3.60;;
68583;SDS011;55557;49.220;11.150;2023-02-01T10:09:32;10.70;;;3.43;;
68583;SDS011;55557;49.220;11.150;2023-02-01T10:17:31;12.93;;;4.03;;
68583;SDS011;55557;49.220;11.150;2023-02-01T10:20:06;9.03;;;3.20;;
68583;SDS011;55557;49.220;11.150;2023-02-01T10:22:43;6.80;;;3.43;;
68583;SDS011;55557;49.220;11.150;2023-02-01T10:25:23;9.53;;;3.50;;
68583;SDS011;55557;49.220;11.150;2023-02-01T10:27:51;16.67;;;3.10;;
68583;SDS011;55557;49.220;11.150;2023-02-01T10:30:24;13.27;;;3.17;;
68583;SDS011;55557;49.220;11.150;2023-02-01T10:33:01;11.30;;;3.27;;
68583;SDS011;55557;49.220;11.150;2023-02-01T10:35:34;7.07;;;3.07;;
68583;SDS011;55557;49.220;11.150;2023-02-01T10:38:03;8.90;;;3.20;;
68583;SDS011;55557;49.220;11.150;2023-02-01T10:40:33;8.23;;;2.40;;
68583;SDS011;55557;49.220;11.150;2023-02-01T10:43:00;9.20;;;3.90;;
68583;SDS011;55557;49.220;11.150;2023-02-01T10:45:28;8.33;;;2.97;;
68583;SDS011;55557;49.220;11.150;2023-02-01T10:47:55;8.00;;;3.30;;
68583;SDS011;55557;49.220;11.150;2023-02-01T10:50:38;7.23;;;3.17;;
68583;SDS011;55557;49.220;11.150;2023-02-01T10:53:09;7.17;;;2.83;;
68583;SDS011;55557;49.220;11.150;2023-02-01T10:55:38;9.80;;;3.93;;
68583;SDS011;55557;49.220;11.150;2023-02-01T10:58:06;8.73;;;3.20;;
68583;SDS011;55557;49.220;11.150;2023-02-01T11:00:51;9.03;;;2.63;;
68583;SDS011;55557;49.220;11.150;2023-02-01T11:05:47;6.53;;;2.93;;
68583;SDS011;55557;49.220;11.150;2023-02-01T11:08:21;6.07;;;2.37;;
68583;SDS011;55557;49.220;11.150;2023-02-01T11:10:47;8.93;;;2.20;;
68583;SDS011;55557;49.220;11.150;2023-02-01T11:13:22;4.03;;;2.63;;
68583;SDS011;55557;49.220;11.150;2023-02-01T11:15:56;5.73;;;2.23;;
68583;SDS011;55557;49.220;11.150;2023-02-01T11:18:26;8.13;;;2.77;;
68583;SDS011;55557;49.220;11.150;2023-02-01T11:20:53;6.03;;;1.93;;
68583;SDS011;55557;49.220;11.150;2023-02-01T11:23:24;4.93;;;2.13;;
68583;SDS011;55557;49.220;11.150;2023-02-01T11:25:55;8.70;;;2.20;;
68583;SDS011;55557;49.220;11.150;2023-02-01T11:28:23;3.10;;;1.90;;
68583;SDS011;55557;49.220;11.150;2023-02-01T11:30:51;9.83;;;2.67;;
68583;SDS011;55557;49.220;11.150;2023-02-01T11:33:20;8.17;;;2.43;;
68583;SDS011;55557;49.220;11.150;2023-02-01T11:35:48;6.83;;;2.07;;
68583;SDS011;55557;49.220;11.150;2023-02-01T11:40:47;7.17;;;2.43;;
68583;SDS011;55557;49.220;11.150;2023-02-01T11:46:16;7.13;;;1.77;;
68583;SDS011;55557;49.220;11.150;2023-02-01T11:48:47;7.97;;;2.20;;
68583;SDS011;55557;49.220;11.150;2023-02-01T11:51:17;6.43;;;2.37;;
68583;SDS011;55557;49.220;11.150;2023-02-01T12:01:43;6.43;;;2.10;;
68583;SDS011;55557;49.220;11.150;2023-02-01T12:04:31;3.70;;;2.30;;
68583;SDS011;55557;49.220;11.150;2023-02-01T12:07:03;5.73;;;2.30;;
68583;SDS011;55557;49.220;11.150;2023-02-01T12:09:34;6.17;;;2.60;;
68583;SDS011;55557;49.220;11.150;2023-02-01T12:14:54;5.07;;;2.27;;
68583;SDS011;55557;49.220;11.150;2023-02-01T12:22:47;4.23;;;1.30;;
68583;SDS011;55557;49.220;11.150;2023-02-01T12:30:58;2.60;;;1.83;;
68583;SDS011;55557;49.220;11.150;2023-02-01T12:33:33;1.83;;;1.60;;
68583;SDS011;55557;49.220;11.150;2023-02-01T12:38:53;4.83;;;2.37;;
68583;SDS011;55557;49.220;11.150;2023-02-01T12:43:57;4.63;;;2.30;;
68583;SDS011;55557;49.220;11.150;2023-02-01T12:46:29;6.27;;;2.23;;
68583;SDS011;55557;49.220;11.150;2023-02-01T12:49:00;9.80;;;3.20;;
68583;SDS011;55557;49.220;11.150;2023-02-01T12:51:29;6.40;;;2.00;;
68583;SDS011;55557;49.220;11.150;2023-02-01T12:54:12;5.73;;;1.80;;
68583;SDS011;55557;49.220;11.150;2023-02-01T12:59:10;11.27;;;3.10;;
68583;SDS011;55557;49.220;11.150;2023-02-01T13:01:40;12.47;;;2.17;;
68583;SDS011;55557;49.220;11.150;2023-02-01T13:06:38;9.90;;;2.60;;
68583;SDS011;55557;49.220;11.150;2023-02-01T13:11:37;6.13;;;2.10;;
68583;SDS011;55557;49.220;11.150;2023-02-01T13:14:06;5.43;;;2.60;;
68583;SDS011;55557;49.220;11.150;2023-02-01T13:16:43;5.90;;;3.10;;
68583;SDS011;55557;49.220;11.150;2023-02-01T13:21:38;6.27;;;2.93;;
68583;SDS011;55557;49.220;11.150;2023-02-01T13:24:07;9.37;;;;;
68583;SDS011;55557;49.220;11.150;2023-02-01T13:32:21;11.20;;;2.50;;
68583;SDS011;55557;49.220;11.150;2023-02-01T13:34:54;9.20;;;2.30;;
68583;SDS011;55557;49.220;11.150;2023-02-01T13:42:31;10.13;;;2.37;;
68583;SDS011;55557;49.220;11.150;2023-02-01T13:45:00;3.83;;;1.73;;
68583;SDS011;55557;49.220;11.150;2023-02-01T13:47:30;5.93;;;2.40;;
68583;SDS011;55557;49.220;11.150;2023-02-01T13:49:58;8.87;;;2.30;;
68583;SDS011;55557;49.220;11.150;2023-02-01T13:52:38;6.77;;;2.60;;
68583;SDS011;55557;49.220;11.150;2023-02-01T13:55:16;6.53;;;2.23;;
68583;SDS011;55557;49.220;11.150;2023-02-01T13:57:49;7.83;;;2.00;;
68583;SDS011;55557;49.220;11.150;2023-02-01T14:00:26;11.30;;;2.67;;
68583;SDS011;55557;49.220;11.150;2023-02-01T14:10:47;13.50;;;1.93;;
68583;SDS011;55557;49.220;11.150;2023-02-01T14:23:44;4.50;;;2.27;;
68583;SDS011;55557;49.220;11.150;2023-02-01T14:26:13;9.30;;;2.37;;
68583;SDS011;55557;49.220;11.150;2023-02-01T14:28:41;4.23;;;1.93;;
68583;SDS011;55557;49.220;11.150;2023-02-01T14:31:13;9.33;;;2.60;;
68583;SDS011;55557;49.220;11.150;2023-02-01T14:33:41;7.20;;;2.17;;
68583;SDS011;55557;49.220;11.150;2023-02-01T14:36:08;8.27;;;2.63;;
68583;SDS011;55557;49.220;11.150;2023-02-01T14:38:35;11.27;;;3.23;;
68583;SDS011;55557;49.220;11.150;2023-02-01T14:49:14;4.73;;;2.00;;
68583;SDS011;55557;49.220;11.150;2023-02-01T14:51:41;13.53;;;2.90;;
68583;SDS011;55557;49.220;11.150;2023-02-01T14:54:08;8.07;;;2.27;;
68583;SDS011;55557;49.220;11.150;2023-02-01T14:56:38;7.33;;;2.53;;
68583;SDS011;55557;49.220;11.150;2023-02-01T14:59:08;5.87;;;2.03;;
68583;SDS011;55557;49.220;11.150;2023-02-01T15:01:38;7.73;;;2.27;;
68583;SDS011;55557;49.220;11.150;2023-02-01T15:06:52;9.97;;;2.83;;
68583;SDS011;55557;49.220;11.150;2023-02-01T15:09:24;7.17;;;2.30;;
68583;SDS011;55557;49.220;11.150;2023-02-01T15:14:23;9.30;;;3.93;;
68583;SDS011;55557;49.220;11.150;2023-02-01T15:16:49;14.90;;;6.10;;
68583;SDS011;55557;49.220;11.150;2023-02-01T15:19:19;10.33;;;4.07;;
68583;SDS011;55557;49.220;11.150;2023-02-01T15:21:47;8.23;;;2.13;;
68583;SDS011;55557;49.220;11.150;2023-02-01T15:24:14;6.13;;;2.63;;
68583;SDS011;55557;49.220;11.150;2023-02-01T15:26:40;10.80;;;2.27;;
68583;SDS011;55557;49.220;11.150;2023-02-01T15:29:10;7.33;;;1.97;;
68583;SDS011;55557;49.220;11.150;2023-02-01T15:31:40;8.60;;;2.40;;
68583;SDS011;55557;49.220;11.150;2023-02-01T15:34:07;6.57;;;1.90;;
68583;SDS011;55557;49.220;11.150;2023-02-01T15:36:33;9.57;;;2.60;;
68583;SDS011;55557;49.220;11.150;2023-02-01T15:39:12;9.67;;;2.67;;
68583;SDS011;55557;49.220;11.150;2023-02-01T15:41:43;10.00;;;2.50;;
68583;SDS011;55557;49.220;11.150;2023-02-01T15:44:27;9.77;;;3.17;;
68583;SDS011;55557;49.220;11.150;2023-02-01T15:46:54;8.30;;;4.23;;
68583;SDS011;55557;49.220;11.150;2023-02-01T15:49:30;7.53;;;3.73;;
68583;SDS011;55557;49.220;11.150;2023-02-01T15:51:58;9.30;;;3.77;;
68583;SDS011;55557;49.220;11.150;2023-02-01T15:54:26;12.30;;;2.47;;
68583;SDS011;55557;49.220;11.150;2023-02-01T15:56:54;10.37;;;2.40;;
68583;SDS011;55557;49.220;11.150;2023-02-01T15:59:23;6.23;;;2.23;;
68583;SDS011;55557;49.220;11.150;2023-02-01T16:01:50;11.37;;;2.10;;
68583;SDS011;55557;49.220;11.150;2023-02-01T16:04:17;6.53;;;2.53;;
68583;SDS011;55557;49.220;11.150;2023-02-01T16:06:48;5.47;;;2.43;;
68583;SDS011;55557;49.220;11.150;2023-02-01T16:09:15;7.73;;;2.33;;
68583;SDS011;55557;49.220;11.150;2023-02-01T16:12:03;18.07;;;3.43;;
68583;SDS011;55557;49.220;11.150;2023-02-01T16:14:28;11.20;;;2.87;;
68583;SDS011;55557;49.220;11.150;2023-02-01T16:16:55;7.53;;;2.27;;
68583;SDS011;55557;49.220;11.150;2023-02-01T16:19:22;6.07;;;2.33;;
68583;SDS011;55557;49.220;11.150;2023-02-01T16:21:52;4.47;;;1.83;;
68583;SDS011;55557;49.220;11.150;2023-02-01T16:24:18;6.10;;;2.33;;
68583;SDS011;55557;49.220;11.150;2023-02-01T16:26:47;7.93;;;2.20;;
68583;SDS011;55557;49.220;11.150;2023-02-01T16:29:13;6.00;;;2.73;;
68583;SDS011;55557;49.220;11.150;2023-02-01T16:31:40;13.27;;;2.50;;
68583;SDS011;55557;49.220;11.150;2023-02-01T16:34:09;7.70;;;2.40;;
68583;SDS011;55557;49.220;11.150;2023-02-01T16:36:36;8.50;;;3.23;;
68583;SDS011;55557;49.220;11.150;2023-02-01T16:39:02;5.70;;;1.73;;
68583;SDS011;55557;49.220;11.150;2023-02-01T16:41:28;6.83;;;2.27;;
68583;SDS011;55557;49.220;11.150;2023-02-01T16:43:54;11.33;;;2.33;;
68583;SDS011;55557;49.220;11.150;2023-02-01T16:46:22;8.97;;;2.30;;
68583;SDS011;55557;49.220;11.150;2023-02-01T16:48:51;13.40;;;2.43;;
68583;SDS011;55557;49.220;11.150;2023-02-01T16:51:17;9.70;;;2.13;;
68583;SDS011;55557;49.220;11.150;2023-02-01T16:53:44;11.97;;;1.87;;
68583;SDS011;55557;49.220;11.150;2023-02-01T16:56:14;6.20;;;3.50;;
68583;SDS011;55557;49.220;11.150;2023-02-01T16:58:40;8.77;;;2.57;;